Time,TemperatureF,DewpointF,PressureIn,WindDirection,WindDirectionDegrees,WindSpeedMPH,WindSpeedGustMPH,Humidity,HourlyPrecipIn,Conditions,Clouds,dailyrainin,SolarRadiationWatts/m^2,SoftwareType,DateUTC
2013-05-22 00:02:00,54.6,50.0,29.90,NNE,15,1.0,-999.0,85,-99.99,,,0.00,0,weatherlink.com 1.10,2013-05-21 22:02:00,
2013-05-22 00:17:00,54.4,50.0,29.90,North,9,3.0,-999.0,85,-99.99,,,0.00,0,weatherlink.com 1.10,2013-05-21 22:17:00,
2013-05-22 00:32:00,54.3,50.0,29.90,North,5,3.0,-999.0,85,-99.99,,,0.00,0,weatherlink.com 1.10,2013-05-21 22:32:00,
2013-05-22 00:48:00,54.4,50.0,29.90,North,5,3.0,-999.0,84,-99.99,,,0.00,0,weatherlink.com 1.10,2013-05-21 22:48:00,
2013-05-22 01:03:00,54.5,50.0,29.90,North,5,0.0,-999.0,84,-99.99,,,0.00,0,weatherlink.com 1.10,2013-05-21 23:03:00,
2013-05-22 01:18:00,54.7,50.0,29.90,North,5,4.0,-999.0,83,-99.99,,,0.00,0,weatherlink.com 1.10,2013-05-21 23:18:00,
2013-05-22 01:33:00,54.8,50.0,29.89,North,5,0.0,-999.0,83,-99.99,,,0.00,0,weatherlink.com 1.10,2013-05-21 23:33:00,
2013-05-22 01:49:00,54.9,50.0,29.89,North,360,2.0,-999.0,83,-99.99,,,0.00,0,weatherlink.com 1.10,2013-05-21 23:49:00,
2013-05-22 02:04:00,55.2,50.0,29.89,NNW,348,1.0,-999.0,82,-99.99,,,0.00,0,weatherlink.com 1.10,2013-05-22 00:04:00,
2013-05-22 02:19:00,55.3,50.0,29.90,NW,316,3.0,-999.0,82,-99.99,,,0.00,0,weatherlink.com 1.10,2013-05-22 00:19:00,
2013-05-22 02:34:00,55.6,50.0,29.89,WNW,296,4.0,-999.0,81,-99.99,,,0.00,0,weatherlink.com 1.10,2013-05-22 00:34:00,
2013-05-22 02:50:00,55.4,49.0,29.89,WNW,292,3.0,-999.0,80,-99.99,,,0.00,0,weatherlink.com 1.10,2013-05-22 00:50:00,
2013-05-22 03:05:00,55.7,50.0,29.88,WNW,301,4.0,-999.0,81,-99.99,,,0.00,0,weatherlink.com 1.10,2013-05-22 01:05:00,
2013-05-22 03:20:00,55.8,50.0,29.88,NNW,327,4.0,-999.0,82,-99.99,,,0.00,0,weatherlink.com 1.10,2013-05-22 01:20:00,
2013-05-22 03:35:00,55.7,51.0,29.87,WNW,296,6.0,-999.0,83,-99.99,,,0.00,0,weatherlink.com 1.10,2013-05-22 01:35:00,
2013-05-22 04:05:00,55.5,51.0,29.86,WNW,293,0.0,-999.0,84,-99.99,,,0.01,0,weatherlink.com 1.10,2013-05-22 02:05:00,
2013-05-22 04:21:00,55.4,51.0,29.86,WNW,293,1.0,-999.0,85,-99.99,,,0.01,0,weatherlink.com 1.10,2013-05-22 02:21:00,
2013-05-22 04:36:00,55.2,51.0,29.86,WNW,289,2.0,-999.0,85,-99.99,,,0.01,0,weatherlink.com 1.10,2013-05-22 02:36:00,
2013-05-22 04:51:00,55.4,51.0,29.85,WNW,302,4.0,-999.0,86,-99.99,,,0.01,0,weatherlink.com 1.10,2013-05-22 02:51:00,
2013-05-22 05:06:00,55.8,52.0,29.85,West,275,6.0,-999.0,86,-99.99,,,0.02,0,weatherlink.com 1.10,2013-05-22 03:06:00,
2013-05-22 05:22:00,55.9,51.0,29.85,WNW,295,6.0,-999.0,84,-99.99,,,0.02,0,weatherlink.com 1.10,2013-05-22 03:22:00,
2013-05-22 05:36:00,56.0,51.0,29.85,WNW,290,11.0,-999.0,83,-99.99,,,0.02,0,weatherlink.com 1.10,2013-05-22 03:36:00,
2013-05-22 05:52:00,56.2,51.0,29.85,WNW,298,5.0,-999.0,83,-99.99,,,0.02,0,weatherlink.com 1.10,2013-05-22 03:52:00,
2013-05-22 06:08:00,56.4,51.0,29.85,WNW,296,6.0,-999.0,82,-99.99,,,0.02,0,weatherlink.com 1.10,2013-05-22 04:08:00,
2013-05-22 06:22:00,56.5,51.0,29.84,WNW,302,3.0,-999.0,81,-99.99,,,0.02,0,weatherlink.com 1.10,2013-05-22 04:22:00,
2013-05-22 06:38:00,56.7,51.0,29.84,NW,311,9.0,-999.0,81,-99.99,,,0.02,0,weatherlink.com 1.10,2013-05-22 04:38:00,
2013-05-22 06:52:00,57.0,52.0,29.84,NW,317,4.0,-999.0,82,-99.99,,,0.02,11,weatherlink.com 1.10,2013-05-22 04:52:00,
2013-05-22 07:08:00,57.3,52.0,29.84,WNW,290,5.0,-999.0,82,-99.99,,,0.02,28,weatherlink.com 1.10,2013-05-22 05:08:00,
2013-05-22 07:23:00,57.5,52.0,29.85,NW,308,5.0,-999.0,83,-99.99,,,0.02,47,weatherlink.com 1.10,2013-05-22 05:23:00,
2013-05-22 07:38:00,57.6,53.0,29.85,WNW,295,5.0,-999.0,83,-99.99,,,0.02,63,weatherlink.com 1.10,2013-05-22 05:38:00,
2013-05-22 07:53:00,57.6,53.0,29.85,NW,309,3.0,-999.0,83,-99.99,,,0.02,74,weatherlink.com 1.10,2013-05-22 05:53:00,
2013-05-22 08:09:00,57.7,52.0,29.85,NW,320,7.0,-999.0,82,-99.99,,,0.02,81,weatherlink.com 1.10,2013-05-22 06:09:00,
2013-05-22 08:23:00,58.0,53.0,29.85,WNW,291,9.0,-999.0,82,-99.99,,,0.02,88,weatherlink.com 1.10,2013-05-22 06:23:00,
2013-05-22 08:39:00,58.2,52.0,29.85,NNW,342,7.0,-999.0,81,-99.99,,,0.02,81,weatherlink.com 1.10,2013-05-22 06:39:00,
2013-05-22 08:54:00,58.2,52.0,29.86,NW,323,9.0,-999.0,79,-99.99,,,0.02,113,weatherlink.com 1.10,2013-05-22 06:54:00,
2013-05-22 09:10:00,58.8,52.0,29.86,NNW,333,10.0,-999.0,77,-99.99,,,0.02,190,weatherlink.com 1.10,2013-05-22 07:10:00,
2013-05-22 09:25:00,60.1,52.0,29.86,WNW,301,7.0,-999.0,75,-99.99,,,0.02,146,weatherlink.com 1.10,2013-05-22 07:25:00,
2013-05-22 09:40:00,59.9,52.0,29.86,NW,319,11.0,-999.0,74,-99.99,,,0.02,67,weatherlink.com 1.10,2013-05-22 07:40:00,
2013-05-22 09:56:00,60.3,52.0,29.86,NW,311,5.0,-999.0,75,-99.99,,,0.02,83,weatherlink.com 1.10,2013-05-22 07:56:00,
2013-05-22 10:26:00,61.7,53.0,29.87,NW,320,4.0,-999.0,74,-99.99,,,0.02,698,weatherlink.com 1.10,2013-05-22 08:26:00,
2013-05-22 10:41:00,62.4,54.0,29.87,WNW,299,8.0,-999.0,75,-99.99,,,0.02,311,weatherlink.com 1.10,2013-05-22 08:41:00,
2013-05-22 10:56:00,63.0,54.0,29.87,NNW,348,9.0,-999.0,72,-99.99,,,0.02,856,weatherlink.com 1.10,2013-05-22 08:56:00,
2013-05-22 11:11:00,63.8,54.0,29.88,NW,319,6.0,-999.0,71,-99.99,,,0.02,916,weatherlink.com 1.10,2013-05-22 09:11:00,
2013-05-22 11:26:00,63.7,55.0,29.88,WNW,300,5.0,-999.0,73,-99.99,,,0.02,629,weatherlink.com 1.10,2013-05-22 09:26:00,
2013-05-22 11:42:00,63.3,55.0,29.89,NW,319,9.0,-999.0,74,-99.99,,,0.02,1013,weatherlink.com 1.10,2013-05-22 09:42:00,
2013-05-22 11:56:00,65.0,56.0,29.89,WNW,301,7.0,-999.0,73,-99.99,,,0.02,1004,weatherlink.com 1.10,2013-05-22 09:56:00,
2013-05-22 12:12:00,64.8,55.0,29.89,NNW,338,5.0,-999.0,71,-99.99,,,0.02,415,weatherlink.com 1.10,2013-05-22 10:12:00,
2013-05-22 12:27:00,64.7,54.0,29.89,NNW,347,10.0,-999.0,69,-99.99,,,0.02,494,weatherlink.com 1.10,2013-05-22 10:27:00,
2013-05-22 12:43:00,66.4,56.0,29.89,NW,319,7.0,-999.0,69,-99.99,,,0.02,1144,weatherlink.com 1.10,2013-05-22 10:43:00,
2013-05-22 12:57:00,66.0,56.0,29.89,WNW,289,13.0,-999.0,70,-99.99,,,0.02,1153,weatherlink.com 1.10,2013-05-22 10:57:00,
2013-05-22 13:13:00,65.5,54.0,29.89,WNW,298,7.0,-999.0,67,-99.99,,,0.02,584,weatherlink.com 1.10,2013-05-22 11:13:00,
2013-05-22 13:28:00,65.0,55.0,29.89,NW,325,5.0,-999.0,70,-99.99,,,0.02,1067,weatherlink.com 1.10,2013-05-22 11:28:00,
2013-05-22 13:44:00,66.2,54.0,29.89,WNW,293,9.0,-999.0,66,-99.99,,,0.02,942,weatherlink.com 1.10,2013-05-22 11:44:00,
2013-05-22 13:58:00,66.6,54.0,29.89,WNW,300,12.0,-999.0,65,-99.99,,,0.02,940,weatherlink.com 1.10,2013-05-22 11:58:00,
2013-05-22 14:13:00,65.6,56.0,29.89,West,260,15.0,-999.0,70,-99.99,,,0.02,935,weatherlink.com 1.10,2013-05-22 12:13:00,
2013-05-22 14:29:00,65.3,54.0,29.89,WNW,286,9.0,-999.0,68,-99.99,,,0.02,930,weatherlink.com 1.10,2013-05-22 12:29:00,
2013-05-22 14:44:00,65.1,55.0,29.89,West,265,11.0,-999.0,71,-99.99,,,0.02,919,weatherlink.com 1.10,2013-05-22 12:44:00,
2013-05-22 15:00:00,64.8,56.0,29.89,West,271,13.0,-999.0,73,-99.99,,,0.02,900,weatherlink.com 1.10,2013-05-22 13:00:00,
2013-05-22 15:14:00,64.9,55.0,29.88,West,271,9.0,-999.0,71,-99.99,,,0.02,889,weatherlink.com 1.10,2013-05-22 13:14:00,
2013-05-22 15:29:00,66.0,56.0,29.88,West,277,8.0,-999.0,69,-99.99,,,0.02,909,weatherlink.com 1.10,2013-05-22 13:29:00,
2013-05-22 15:45:00,65.8,55.0,29.88,WNW,284,6.0,-999.0,69,-99.99,,,0.02,991,weatherlink.com 1.10,2013-05-22 13:45:00,
2013-05-22 16:00:00,66.7,57.0,29.88,West,279,5.0,-999.0,70,-99.99,,,0.02,842,weatherlink.com 1.10,2013-05-22 14:00:00,
2013-05-22 16:16:00,65.5,55.0,29.88,WSW,237,5.0,-999.0,70,-99.99,,,0.02,789,weatherlink.com 1.10,2013-05-22 14:16:00,
2013-05-22 16:30:00,67.0,57.0,29.88,WNW,296,4.0,-999.0,71,-99.99,,,0.02,770,weatherlink.com 1.10,2013-05-22 14:30:00,
2013-05-22 16:45:00,66.1,56.0,29.87,WNW,290,12.0,-999.0,70,-99.99,,,0.02,715,weatherlink.com 1.10,2013-05-22 14:45:00,
2013-05-22 17:01:00,65.1,56.0,29.87,West,267,1.0,-999.0,72,-99.99,,,0.02,673,weatherlink.com 1.10,2013-05-22 15:01:00,
2013-05-22 17:16:00,65.3,56.0,29.87,West,260,5.0,-999.0,72,-99.99,,,0.02,635,weatherlink.com 1.10,2013-05-22 15:16:00,
2013-05-22 17:31:00,64.9,56.0,29.86,WSW,257,11.0,-999.0,72,-99.99,,,0.02,591,weatherlink.com 1.10,2013-05-22 15:31:00,
2013-05-22 17:46:00,64.7,55.0,29.86,WSW,256,12.0,-999.0,70,-99.99,,,0.02,548,weatherlink.com 1.10,2013-05-22 15:46:00,
2013-05-22 18:17:00,64.6,55.0,29.86,West,267,7.0,-999.0,72,-99.99,,,0.02,455,weatherlink.com 1.10,2013-05-22 16:17:00,
2013-05-22 18:32:00,65.1,55.0,29.85,West,260,11.0,-999.0,70,-99.99,,,0.02,410,weatherlink.com 1.10,2013-05-22 16:32:00,
2013-05-22 18:46:00,65.3,56.0,29.86,SW,228,12.0,-999.0,73,-99.99,,,0.02,364,weatherlink.com 1.10,2013-05-22 16:46:00,
2013-05-22 19:02:00,64.8,56.0,29.85,West,271,10.0,-999.0,73,-99.99,,,0.02,313,weatherlink.com 1.10,2013-05-22 17:02:00,
2013-05-22 19:17:00,64.6,56.0,29.85,WSW,257,11.0,-999.0,74,-99.99,,,0.02,267,weatherlink.com 1.10,2013-05-22 17:17:00,
2013-05-22 19:33:00,64.5,56.0,29.85,West,269,12.0,-999.0,75,-99.99,,,0.02,216,weatherlink.com 1.10,2013-05-22 17:33:00,
2013-05-22 19:47:00,64.1,56.0,29.85,WSW,253,7.0,-999.0,76,-99.99,,,0.02,171,weatherlink.com 1.10,2013-05-22 17:47:00,
2013-05-22 20:03:00,63.7,56.0,29.86,WSW,253,7.0,-999.0,76,-99.99,,,0.02,123,weatherlink.com 1.10,2013-05-22 18:03:00,
2013-05-22 20:18:00,63.6,56.0,29.86,West,265,7.0,-999.0,76,-99.99,,,0.02,74,weatherlink.com 1.10,2013-05-22 18:18:00,
2013-05-22 20:33:00,63.6,56.0,29.87,West,281,5.0,-999.0,77,-99.99,,,0.02,37,weatherlink.com 1.10,2013-05-22 18:33:00,
2013-05-22 20:49:00,63.4,56.0,29.87,West,269,5.0,-999.0,78,-99.99,,,0.02,11,weatherlink.com 1.10,2013-05-22 18:49:00,
2013-05-22 21:03:00,62.9,57.0,29.87,WSW,257,6.0,-999.0,80,-99.99,,,0.02,0,weatherlink.com 1.10,2013-05-22 19:03:00,
2013-05-22 21:19:00,62.4,57.0,29.87,West,259,6.0,-999.0,81,-99.99,,,0.02,0,weatherlink.com 1.10,2013-05-22 19:19:00,
2013-05-22 21:34:00,62.0,56.0,29.88,SW,223,7.0,-999.0,82,-99.99,,,0.02,0,weatherlink.com 1.10,2013-05-22 19:34:00,
2013-05-22 21:49:00,61.5,56.0,29.88,WSW,248,6.0,-999.0,82,-99.99,,,0.02,0,weatherlink.com 1.10,2013-05-22 19:49:00,
2013-05-22 22:05:00,61.5,57.0,29.88,WSW,242,5.0,-999.0,84,-99.99,,,0.02,0,weatherlink.com 1.10,2013-05-22 20:05:00,
2013-05-22 22:19:00,61.4,57.0,29.89,SW,230,6.0,-999.0,84,-99.99,,,0.02,0,weatherlink.com 1.10,2013-05-22 20:19:00,
2013-05-22 22:34:00,60.8,56.0,29.89,WSW,242,3.0,-999.0,84,-99.99,,,0.02,0,weatherlink.com 1.10,2013-05-22 20:34:00,
2013-05-22 22:50:00,60.8,56.0,29.89,WSW,244,6.0,-999.0,83,-99.99,,,0.02,0,weatherlink.com 1.10,2013-05-22 20:50:00,
2013-05-22 23:05:00,61.1,56.0,29.89,WSW,255,7.0,-999.0,84,-99.99,,,0.02,0,weatherlink.com 1.10,2013-05-22 21:05:00,
2013-05-22 23:21:00,61.3,57.0,29.89,WSW,254,4.0,-999.0,85,-99.99,,,0.02,0,weatherlink.com 1.10,2013-05-22 21:21:00,
2013-05-22 23:35:00,61.0,57.0,29.89,West,281,10.0,-999.0,85,-99.99,,,0.02,0,weatherlink.com 1.10,2013-05-22 21:35:00,
2013-05-22 23:50:00,60.8,56.0,29.88,West,265,10.0,-999.0,84,-99.99,,,0.02,0,weatherlink.com 1.10,2013-05-22 21:50:00,